sensor_id;sensor_type;location;lat;lon;timestamp;temperature;humidity
11894;DHT22;6006;49.696;8.662;2023-01-15T00:01:50;9.80;99.90
11894;DHT22;6006;49.696;8.662;2023-01-15T00:04:19;9.80;99.90
11894;DHT22;6006;49.696;8.662;2023-01-15T00:06:45;9.80;99.90
11894;DHT22;6006;49.696;8.662;2023-01-15T00:09:14;9.80;99.90
11894;DHT22;6006;49.696;8.662;2023-01-15T00:11:41;9.80;99.90
11894;DHT22;6006;49.696;8.662;2023-01-15T00:14:08;9.80;99.90
11894;DHT22;6006;49.696;8.662;2023-01-15T00:16:35;9.80;99.90
11894;DHT22;6006;49.696;8.662;2023-01-15T00:19:02;9.80;99.90
11894;DHT22;6006;49.696;8.662;2023-01-15T00:21:34;9.80;99.90
11894;DHT22;6006;49.696;8.662;2023-01-15T00:24:00;9.80;99.90
11894;DHT22;6006;49.696;8.662;2023-01-15T00:26:45;9.80;99.90
11894;DHT22;6006;49.696;8.662;2023-01-15T00:29:31;9.80;99.90
11894;DHT22;6006;49.696;8.662;2023-01-15T00:32:00;9.80;99.90
11894;DHT22;6006;49.696;8.662;2023-01-15T00:34:28;9.80;99.90
11894;DHT22;6006;49.696;8.662;2023-01-15T00:36:57;9.80;99.90
11894;DHT22;6006;49.696;8.662;2023-01-15T00:39:24;9.80;99.90
11894;DHT22;6006;49.696;8.662;2023-01-15T00:41:52;9.80;99.90
11894;DHT22;6006;49.696;8.662;2023-01-15T00:44:19;9.90;99.90
11894;DHT22;6006;49.696;8.662;2023-01-15T00:46:46;9.90;99.90
11894;DHT22;6006;49.696;8.662;2023-01-15T00:49:13;9.90;99.90
11894;DHT22;6006;49.696;8.662;2023-01-15T00:51:40;9.90;99.90
11894;DHT22;6006;49.696;8.662;2023-01-15T00:54:08;9.90;99.90
11894;DHT22;6006;49.696;8.662;2023-01-15T00:56:35;9.90;99.90
11894;DHT22;6006;49.696;8.662;2023-01-15T00:59:03;10.00;99.90
11894;DHT22;6006;49.696;8.662;2023-01-15T01:01:30;10.00;99.90
11894;DHT22;6006;49.696;8.662;2023-01-15T01:03:58;10.00;99.90
11894;DHT22;6006;49.696;8.662;2023-01-15T01:06:25;10.00;99.90
11894;DHT22;6006;49.696;8.662;2023-01-15T01:08:52;10.00;99.90
11894;DHT22;6006;49.696;8.662;2023-01-15T01:11:22;10.00;99.90
11894;DHT22;6006;49.696;8.662;2023-01-15T01:13:51;10.00;99.90
11894;DHT22;6006;49.696;8.662;2023-01-15T01:16:24;10.00;99.90
11894;DHT22;6006;49.696;8.662;2023-01-15T01:18:52;9.90;99.90
11894;DHT22;6006;49.696;8.662;2023-01-15T01:21:19;10.00;99.90
11894;DHT22;6006;49.696;8.662;2023-01-15T01:23:47;9.90;99.90
11894;DHT22;6006;49.696;8.662;2023-01-15T01:26:14;9.90;99.90
11894;DHT22;6006;49.696;8.662;2023-01-15T01:28:46;9.90;99.90
11894;DHT22;6006;49.696;8.662;2023-01-15T01:31:13;9.90;99.90
11894;DHT22;6006;49.696;8.662;2023-01-15T01:33:40;9.90;99.90
11894;DHT22;6006;49.696;8.662;2023-01-15T01:36:07;9.90;99.90
11894;DHT22;6006;49.696;8.662;2023-01-15T01:38:34;9.90;99.90
11894;DHT22;6006;49.696;8.662;2023-01-15T01:41:01;9.90;99.90
11894;DHT22;6006;49.696;8.662;2023-01-15T01:43:29;9.90;99.90
11894;DHT22;6006;49.696;8.662;2023-01-15T01:45:57;9.90;99.90
11894;DHT22;6006;49.696;8.662;2023-01-15T01:48:27;9.90;99.90
11894;DHT22;6006;49.696;8.662;2023-01-15T01:50:56;9.90;99.90
11894;DHT22;6006;49.696;8.662;2023-01-15T01:53:27;9.90;99.90
11894;DHT22;6006;49.696;8.662;2023-01-15T01:55:56;9.90;99.90
11894;DHT22;6006;49.696;8.662;2023-01-15T01:58:28;9.90;99.90
11894;DHT22;6006;49.696;8.662;2023-01-15T02:00:58;9.90;99.90
11894;DHT22;6006;49.696;8.662;2023-01-15T02:03:34;9.90;99.90
11894;DHT22;6006;49.696;8.662;2023-01-15T02:06:06;9.90;99.90
11894;DHT22;6006;49.696;8.662;2023-01-15T02:08:34;9.90;99.90
11894;DHT22;6006;49.696;8.662;2023-01-15T02:11:05;9.90;99.90
11894;DHT22;6006;49.696;8.662;2023-01-15T02:13:36;9.90;99.90
11894;DHT22;6006;49.696;8.662;2023-01-15T02:16:08;9.90;99.90
11894;DHT22;6006;49.696;8.662;2023-01-15T02:18:42;9.80;99.90
11894;DHT22;6006;49.696;8.662;2023-01-15T02:21:17;9.90;99.90
11894;DHT22;6006;49.696;8.662;2023-01-15T02:23:59;9.80;99.90
11894;DHT22;6006;49.696;8.662;2023-01-15T02:26:54;9.80;99.90
11894;DHT22;6006;49.696;8.662;2023-01-15T02:29:28;9.90;99.90
11894;DHT22;6006;49.696;8.662;2023-01-15T02:31:58;9.80;99.90
11894;DHT22;6006;49.696;8.662;2023-01-15T02:34:31;9.80;99.90
11894;DHT22;6006;49.696;8.662;2023-01-15T02:37:02;9.80;99.90
11894;DHT22;6006;49.696;8.662;2023-01-15T02:39:31;9.80;99.90
11894;DHT22;6006;49.696;8.662;2023-01-15T02:42:03;9.80;99.90
11894;DHT22;6006;49.696;8.662;2023-01-15T02:44:33;9.30;99.90
11894;DHT22;6006;49.696;8.662;2023-01-15T02:47:03;9.10;99.90
11894;DHT22;6006;49.696;8.662;2023-01-15T02:49:30;9.00;99.90
11894;DHT22;6006;49.696;8.662;2023-01-15T02:52:01;9.00;99.90
11894;DHT22;6006;49.696;8.662;2023-01-15T02:54:34;8.90;99.90
11894;DHT22;6006;49.696;8.662;2023-01-15T02:57:04;8.70;99.90
11894;DHT22;6006;49.696;8.662;2023-01-15T02:59:35;8.70;99.90
11894;DHT22;6006;49.696;8.662;2023-01-15T03:02:08;8.60;99.90
11894;DHT22;6006;49.696;8.662;2023-01-15T03:04:39;8.60;99.90
11894;DHT22;6006;49.696;8.662;2023-01-15T03:07:13;8.50;99.90
11894;DHT22;6006;49.696;8.662;2023-01-15T03:09:41;8.50;99.90
11894;DHT22;6006;49.696;8.662;2023-01-15T03:12:14;8.50;99.90
11894;DHT22;6006;49.696;8.662;2023-01-15T03:14:45;8.50;99.90
11894;DHT22;6006;49.696;8.662;2023-01-15T03:17:19;8.50;99.90
11894;DHT22;6006;49.696;8.662;2023-01-15T03:19:50;8.40;99.90
11894;DHT22;6006;49.696;8.662;2023-01-15T03:22:24;8.50;99.90
11894;DHT22;6006;49.696;8.662;2023-01-15T03:24:53;8.40;99.90
11894;DHT22;6006;49.696;8.662;2023-01-15T03:27:22;8.40;99.90
11894;DHT22;6006;49.696;8.662;2023-01-15T03:29:52;8.40;99.90
11894;DHT22;6006;49.696;8.662;2023-01-15T03:32:20;8.40;99.90
11894;DHT22;6006;49.696;8.662;2023-01-15T03:34:50;8.40;99.90
11894;DHT22;6006;49.696;8.662;2023-01-15T03:37:18;8.30;99.90
11894;DHT22;6006;49.696;8.662;2023-01-15T03:39:46;8.30;99.90
11894;DHT22;6006;49.696;8.662;2023-01-15T03:42:19;8.30;99.90
11894;DHT22;6006;49.696;8.662;2023-01-15T03:44:55;8.20;99.90
11894;DHT22;6006;49.696;8.662;2023-01-15T03:47:32;8.20;99.90
11894;DHT22;6006;49.696;8.662;2023-01-15T03:50:07;8.10;99.90
11894;DHT22;6006;49.696;8.662;2023-01-15T03:52:43;8.00;99.90
11894;DHT22;6006;49.696;8.662;2023-01-15T03:55:13;7.90;99.90
11894;DHT22;6006;49.696;8.662;2023-01-15T03:57:44;7.90;99.90
11894;DHT22;6006;49.696;8.662;2023-01-15T04:00:20;7.80;99.90
11894;DHT22;6006;49.696;8.662;2023-01-15T04:02:48;7.80;99.90
11894;DHT22;6006;49.696;8.662;2023-01-15T04:05:16;7.70;99.90
11894;DHT22;6006;49.696;8.662;2023-01-15T04:07:44;7.70;99.90
11894;DHT22;6006;49.696;8.662;2023-01-15T04:10:11;7.60;99.90
11894;DHT22;6006;49.696;8.662;2023-01-15T04:12:38;7.60;99.90
11894;DHT22;6006;49.696;8.662;2023-01-15T04:15:06;7.60;99.90
11894;DHT22;6006;49.696;8.662;2023-01-15T04:17:34;7.70;99.90
11894;DHT22;6006;49.696;8.662;2023-01-15T04:20:01;7.60;99.90
11894;DHT22;6006;49.696;8.662;2023-01-15T04:22:28;7.60;99.90
11894;DHT22;6006;49.696;8.662;2023-01-15T04:24:55;7.60;99.90
11894;DHT22;6006;49.696;8.662;2023-01-15T04:27:22;7.60;99.90
11894;DHT22;6006;49.696;8.662;2023-01-15T04:29:49;7.60;99.90
11894;DHT22;6006;49.696;8.662;2023-01-15T04:32:15;7.60;99.90
11894;DHT22;6006;49.696;8.662;2023-01-15T04:34:44;7.60;99.90
11894;DHT22;6006;49.696;8.662;2023-01-15T04:37:11;7.50;99.90
11894;DHT22;6006;49.696;8.662;2023-01-15T04:39:37;7.50;99.90
11894;DHT22;6006;49.696;8.662;2023-01-15T04:42:04;7.50;99.90
11894;DHT22;6006;49.696;8.662;2023-01-15T04:44:49;7.40;99.90
11894;DHT22;6006;49.696;8.662;2023-01-15T04:47:16;7.40;99.90
11894;DHT22;6006;49.696;8.662;2023-01-15T04:49:44;7.40;99.90
11894;DHT22;6006;49.696;8.662;2023-01-15T04:52:11;7.30;99.90
11894;DHT22;6006;49.696;8.662;2023-01-15T04:54:37;7.30;99.90
11894;DHT22;6006;49.696;8.662;2023-01-15T04:57:04;7.20;99.90
11894;DHT22;6006;49.696;8.662;2023-01-15T04:59:31;7.20;99.90
11894;DHT22;6006;49.696;8.662;2023-01-15T05:01:58;7.20;99.90
11894;DHT22;6006;49.696;8.662;2023-01-15T05:04:25;7.10;99.90
11894;DHT22;6006;49.696;8.662;2023-01-15T05:06:53;7.10;99.90
11894;DHT22;6006;49.696;8.662;2023-01-15T05:09:20;7.10;99.90
11894;DHT22;6006;49.696;8.662;2023-01-15T05:11:47;7.00;99.90
11894;DHT22;6006;49.696;8.662;2023-01-15T05:14:13;7.00;99.90
11894;DHT22;6006;49.696;8.662;2023-01-15T05:16:40;7.00;99.90
11894;DHT22;6006;49.696;8.662;2023-01-15T05:19:09;7.00;99.90
11894;DHT22;6006;49.696;8.662;2023-01-15T05:21:39;7.00;99.90
11894;DHT22;6006;49.696;8.662;2023-01-15T05:24:10;7.00;99.90
11894;DHT22;6006;49.696;8.662;2023-01-15T05:26:38;6.90;99.90
11894;DHT22;6006;49.696;8.662;2023-01-15T05:29:05;6.90;99.90
11894;DHT22;6006;49.696;8.662;2023-01-15T05:31:32;6.80;99.90
11894;DHT22;6006;49.696;8.662;2023-01-15T05:33:59;6.80;99.90
11894;DHT22;6006;49.696;8.662;2023-01-15T05:36:28;6.70;99.90
11894;DHT22;6006;49.696;8.662;2023-01-15T05:38:56;6.70;99.90
11894;DHT22;6006;49.696;8.662;2023-01-15T05:41:27;6.70;99.90
11894;DHT22;6006;49.696;8.662;2023-01-15T05:44:13;6.70;99.90
11894;DHT22;6006;49.696;8.662;2023-01-15T05:46:42;6.70;99.90
11894;DHT22;6006;49.696;8.662;2023-01-15T05:49:10;6.60;99.90
11894;DHT22;6006;49.696;8.662;2023-01-15T05:51:38;6.60;99.90
11894;DHT22;6006;49.696;8.662;2023-01-15T05:54:07;6.60;99.90
11894;DHT22;6006;49.696;8.662;2023-01-15T05:56:36;6.60;99.90
11894;DHT22;6006;49.696;8.662;2023-01-15T05:59:04;6.60;99.90
11894;DHT22;6006;49.696;8.662;2023-01-15T06:01:32;6.60;99.90
11894;DHT22;6006;49.696;8.662;2023-01-15T06:04:00;6.60;99.90
11894;DHT22;6006;49.696;8.662;2023-01-15T06:06:28;6.60;99.90
11894;DHT22;6006;49.696;8.662;2023-01-15T06:08:55;6.60;99.90
11894;DHT22;6006;49.696;8.662;2023-01-15T06:11:22;6.60;99.90
11894;DHT22;6006;49.696;8.662;2023-01-15T06:13:51;6.50;99.90
11894;DHT22;6006;49.696;8.662;2023-01-15T06:16:18;6.50;99.90
11894;DHT22;6006;49.696;8.662;2023-01-15T06:18:45;6.50;99.90
11894;DHT22;6006;49.696;8.662;2023-01-15T06:21:13;6.40;99.90
11894;DHT22;6006;49.696;8.662;2023-01-15T06:23:40;6.40;99.90
11894;DHT22;6006;49.696;8.662;2023-01-15T06:26:10;6.40;99.90
11894;DHT22;6006;49.696;8.662;2023-01-15T06:28:38;6.40;99.90
11894;DHT22;6006;49.696;8.662;2023-01-15T06:31:08;6.40;99.90
11894;DHT22;6006;49.696;8.662;2023-01-15T06:33:35;6.40;99.90
11894;DHT22;6006;49.696;8.662;2023-01-15T06:36:04;6.70;99.90
11894;DHT22;6006;49.696;8.662;2023-01-15T06:38:31;6.30;99.90
11894;DHT22;6006;49.696;8.662;2023-01-15T06:40:59;6.30;99.90
11894;DHT22;6006;49.696;8.662;2023-01-15T06:43:26;6.20;99.90
11894;DHT22;6006;49.696;8.662;2023-01-15T06:46:12;6.30;99.90
11894;DHT22;6006;49.696;8.662;2023-01-15T06:48:57;6.20;99.90
11894;DHT22;6006;49.696;8.662;2023-01-15T06:51:24;6.10;99.90
11894;DHT22;6006;49.696;8.662;2023-01-15T06:53:51;6.10;99.90
11894;DHT22;6006;49.696;8.662;2023-01-15T06:56:18;6.20;99.90
11894;DHT22;6006;49.696;8.662;2023-01-15T06:58:45;6.10;99.90
11894;DHT22;6006;49.696;8.662;2023-01-15T07:01:14;6.10;99.90
11894;DHT22;6006;49.696;8.662;2023-01-15T07:03:41;6.10;99.90
11894;DHT22;6006;49.696;8.662;2023-01-15T07:06:10;6.10;99.90
11894;DHT22;6006;49.696;8.662;2023-01-15T07:08:37;6.10;99.90
11894;DHT22;6006;49.696;8.662;2023-01-15T07:11:07;6.10;99.90
11894;DHT22;6006;49.696;8.662;2023-01-15T07:13:34;6.10;99.90
11894;DHT22;6006;49.696;8.662;2023-01-15T07:16:02;6.00;99.90
11894;DHT22;6006;49.696;8.662;2023-01-15T07:18:32;6.00;99.90
11894;DHT22;6006;49.696;8.662;2023-01-15T07:20:59;6.00;99.90
11894;DHT22;6006;49.696;8.662;2023-01-15T07:23:27;6.00;99.90
11894;DHT22;6006;49.696;8.662;2023-01-15T07:25:54;6.00;99.90
11894;DHT22;6006;49.696;8.662;2023-01-15T07:28:22;5.90;99.90
11894;DHT22;6006;49.696;8.662;2023-01-15T07:30:49;6.20;99.90
11894;DHT22;6006;49.696;8.662;2023-01-15T07:33:16;6.10;99.90
11894;DHT22;6006;49.696;8.662;2023-01-15T07:35:44;6.00;99.90
11894;DHT22;6006;49.696;8.662;2023-01-15T07:38:11;5.90;99.90
11894;DHT22;6006;49.696;8.662;2023-01-15T07:40:38;5.90;99.90
11894;DHT22;6006;49.696;8.662;2023-01-15T07:43:05;5.90;99.90
11894;DHT22;6006;49.696;8.662;2023-01-15T07:45:49;5.90;99.90
11894;DHT22;6006;49.696;8.662;2023-01-15T07:48:33;5.90;99.90
11894;DHT22;6006;49.696;8.662;2023-01-15T07:51:19;5.90;99.90
11894;DHT22;6006;49.696;8.662;2023-01-15T07:53:46;5.90;99.90
11894;DHT22;6006;49.696;8.662;2023-01-15T07:56:13;5.90;99.90
11894;DHT22;6006;49.696;8.662;2023-01-15T07:58:40;5.90;99.90
11894;DHT22;6006;49.696;8.662;2023-01-15T08:01:06;5.90;99.90
11894;DHT22;6006;49.696;8.662;2023-01-15T08:03:33;5.90;99.90
11894;DHT22;6006;49.696;8.662;2023-01-15T08:06:00;5.90;99.90
11894;DHT22;6006;49.696;8.662;2023-01-15T08:08:28;6.00;99.90
11894;DHT22;6006;49.696;8.662;2023-01-15T08:11:00;6.00;99.90
11894;DHT22;6006;49.696;8.662;2023-01-15T08:13:44;6.00;99.90
11894;DHT22;6006;49.696;8.662;2023-01-15T08:16:28;6.00;99.90
11894;DHT22;6006;49.696;8.662;2023-01-15T08:18:55;6.00;99.90
11894;DHT22;6006;49.696;8.662;2023-01-15T08:21:22;5.90;99.90
11894;DHT22;6006;49.696;8.662;2023-01-15T08:23:50;5.90;99.90
11894;DHT22;6006;49.696;8.662;2023-01-15T08:26:17;5.90;99.90
11894;DHT22;6006;49.696;8.662;2023-01-15T08:28:44;5.80;99.90
11894;DHT22;6006;49.696;8.662;2023-01-15T08:31:11;5.80;99.90
11894;DHT22;6006;49.696;8.662;2023-01-15T08:33:38;5.80;99.90
11894;DHT22;6006;49.696;8.662;2023-01-15T08:36:05;5.80;99.90
11894;DHT22;6006;49.696;8.662;2023-01-15T08:38:33;5.80;99.90
11894;DHT22;6006;49.696;8.662;2023-01-15T08:41:01;5.80;99.90
11894;DHT22;6006;49.696;8.662;2023-01-15T08:43:30;5.70;99.90
11894;DHT22;6006;49.696;8.662;2023-01-15T08:45:58;5.70;99.90
11894;DHT22;6006;49.696;8.662;2023-01-15T08:48:26;5.70;99.90
11894;DHT22;6006;49.696;8.662;2023-01-15T08:50:53;5.70;99.90
11894;DHT22;6006;49.696;8.662;2023-01-15T08:53:20;5.70;99.90
11894;DHT22;6006;49.696;8.662;2023-01-15T08:55:48;5.70;99.90
11894;DHT22;6006;49.696;8.662;2023-01-15T08:58:17;5.70;99.90
11894;DHT22;6006;49.696;8.662;2023-01-15T09:00:44;5.70;99.90
11894;DHT22;6006;49.696;8.662;2023-01-15T09:03:11;5.80;99.90
11894;DHT22;6006;49.696;8.662;2023-01-15T09:05:38;5.70;99.90
11894;DHT22;6006;49.696;8.662;2023-01-15T09:08:06;5.70;99.90
11894;DHT22;6006;49.696;8.662;2023-01-15T09:10:33;5.70;99.90
11894;DHT22;6006;49.696;8.662;2023-01-15T09:13:00;5.70;99.90
11894;DHT22;6006;49.696;8.662;2023-01-15T09:15:30;5.70;99.90
11894;DHT22;6006;49.696;8.662;2023-01-15T09:17:57;5.80;99.90
11894;DHT22;6006;49.696;8.662;2023-01-15T09:20:24;5.80;99.90
11894;DHT22;6006;49.696;8.662;2023-01-15T09:22:52;5.80;99.90
11894;DHT22;6006;49.696;8.662;2023-01-15T09:25:19;5.70;99.90
11894;DHT22;6006;49.696;8.662;2023-01-15T09:27:48;5.80;99.90
11894;DHT22;6006;49.696;8.662;2023-01-15T09:30:18;5.80;99.90
11894;DHT22;6006;49.696;8.662;2023-01-15T09:32:47;5.80;99.90
11894;DHT22;6006;49.696;8.662;2023-01-15T09:35:14;5.80;99.90
11894;DHT22;6006;49.696;8.662;2023-01-15T09:37:42;5.80;99.90
11894;DHT22;6006;49.696;8.662;2023-01-15T09:40:39;5.70;99.90
11894;DHT22;6006;49.696;8.662;2023-01-15T09:43:19;5.80;99.90
11894;DHT22;6006;49.696;8.662;2023-01-15T09:45:55;5.80;99.90
11894;DHT22;6006;49.696;8.662;2023-01-15T09:48:33;5.80;99.90
11894;DHT22;6006;49.696;8.662;2023-01-15T09:51:15;5.80;99.90
11894;DHT22;6006;49.696;8.662;2023-01-15T09:54:10;5.80;99.90
11894;DHT22;6006;49.696;8.662;2023-01-15T09:56:41;5.80;99.90
11894;DHT22;6006;49.696;8.662;2023-01-15T09:59:18;5.80;99.90
11894;DHT22;6006;49.696;8.662;2023-01-15T10:01:48;5.80;99.90
11894;DHT22;6006;49.696;8.662;2023-01-15T10:04:28;5.80;99.90
11894;DHT22;6006;49.696;8.662;2023-01-15T10:07:04;5.70;99.90
11894;DHT22;6006;49.696;8.662;2023-01-15T10:09:34;5.70;99.90
11894;DHT22;6006;49.696;8.662;2023-01-15T10:12:12;5.70;99.90
11894;DHT22;6006;49.696;8.662;2023-01-15T10:15:01;5.70;99.90
11894;DHT22;6006;49.696;8.662;2023-01-15T10:17:36;5.70;99.90
11894;DHT22;6006;49.696;8.662;2023-01-15T10:20:12;5.80;99.90
11894;DHT22;6006;49.696;8.662;2023-01-15T10:22:51;5.80;99.90
11894;DHT22;6006;49.696;8.662;2023-01-15T10:25:26;5.80;99.90
11894;DHT22;6006;49.696;8.662;2023-01-15T10:27:55;5.80;99.90
11894;DHT22;6006;49.696;8.662;2023-01-15T10:30:30;5.80;99.90
11894;DHT22;6006;49.696;8.662;2023-01-15T10:33:06;5.80;99.90
11894;DHT22;6006;49.696;8.662;2023-01-15T10:35:43;5.70;99.90
11894;DHT22;6006;49.696;8.662;2023-01-15T10:38:18;5.70;99.90
11894;DHT22;6006;49.696;8.662;2023-01-15T10:43:58;5.70;99.90
11894;DHT22;6006;49.696;8.662;2023-01-15T10:46:29;5.60;99.90
11894;DHT22;6006;49.696;8.662;2023-01-15T10:49:01;5.60;99.90
11894;DHT22;6006;49.696;8.662;2023-01-15T10:51:37;5.50;99.90
11894;DHT22;6006;49.696;8.662;2023-01-15T10:54:13;5.50;99.90
11894;DHT22;6006;49.696;8.662;2023-01-15T10:56:45;5.50;99.90
11894;DHT22;6006;49.696;8.662;2023-01-15T10:59:16;5.50;99.90
11894;DHT22;6006;49.696;8.662;2023-01-15T11:01:48;5.40;99.90
11894;DHT22;6006;49.696;8.662;2023-01-15T11:04:15;5.40;99.90
11894;DHT22;6006;49.696;8.662;2023-01-15T11:06:44;5.40;99.90
11894;DHT22;6006;49.696;8.662;2023-01-15T11:09:19;5.30;99.90
11894;DHT22;6006;49.696;8.662;2023-01-15T11:11:49;5.20;99.90
11894;DHT22;6006;49.696;8.662;2023-01-15T11:14:36;5.20;99.90
11894;DHT22;6006;49.696;8.662;2023-01-15T11:17:22;5.10;99.90
11894;DHT22;6006;49.696;8.662;2023-01-15T11:20:16;5.10;99.90
11894;DHT22;6006;49.696;8.662;2023-01-15T11:22:45;5.00;99.90
11894;DHT22;6006;49.696;8.662;2023-01-15T11:25:13;5.00;99.90
11894;DHT22;6006;49.696;8.662;2023-01-15T11:27:50;5.00;99.90
11894;DHT22;6006;49.696;8.662;2023-01-15T11:30:29;5.00;99.90
11894;DHT22;6006;49.696;8.662;2023-01-15T11:32:57;5.00;99.90
11894;DHT22;6006;49.696;8.662;2023-01-15T11:35:25;4.90;99.90
11894;DHT22;6006;49.696;8.662;2023-01-15T11:38:09;4.90;99.90
11894;DHT22;6006;49.696;8.662;2023-01-15T11:40:38;4.80;99.90
11894;DHT22;6006;49.696;8.662;2023-01-15T11:43:18;4.80;99.90
11894;DHT22;6006;49.696;8.662;2023-01-15T11:46:03;4.70;99.90
11894;DHT22;6006;49.696;8.662;2023-01-15T11:48:47;4.60;99.90
11894;DHT22;6006;49.696;8.662;2023-01-15T11:51:37;4.50;99.90
11894;DHT22;6006;49.696;8.662;2023-01-15T11:54:09;4.50;99.90
11894;DHT22;6006;49.696;8.662;2023-01-15T11:56:41;4.50;99.90
11894;DHT22;6006;49.696;8.662;2023-01-15T11:59:09;4.60;99.90
11894;DHT22;6006;49.696;8.662;2023-01-15T12:01:39;4.70;99.90
11894;DHT22;6006;49.696;8.662;2023-01-15T12:04:24;5.10;99.90
11894;DHT22;6006;49.696;8.662;2023-01-15T12:06:52;4.90;99.90
11894;DHT22;6006;49.696;8.662;2023-01-15T12:09:26;4.70;99.90
11894;DHT22;6006;49.696;8.662;2023-01-15T12:12:05;4.70;99.90
11894;DHT22;6006;49.696;8.662;2023-01-15T12:14:50;4.80;99.90
11894;DHT22;6006;49.696;8.662;2023-01-15T12:17:31;4.80;99.90
11894;DHT22;6006;49.696;8.662;2023-01-15T12:20:10;4.80;99.90
11894;DHT22;6006;49.696;8.662;2023-01-15T12:22:56;4.70;99.90
11894;DHT22;6006;49.696;8.662;2023-01-15T12:25:36;4.80;99.90
11894;DHT22;6006;49.696;8.662;2023-01-15T12:28:11;4.70;99.90
11894;DHT22;6006;49.696;8.662;2023-01-15T12:30:50;4.80;99.90
11894;DHT22;6006;49.696;8.662;2023-01-15T12:33:27;4.90;99.90
11894;DHT22;6006;49.696;8.662;2023-01-15T12:36:02;4.90;99.90
11894;DHT22;6006;49.696;8.662;2023-01-15T12:38:44;5.00;99.90
11894;DHT22;6006;49.696;8.662;2023-01-15T12:41:15;5.20;99.90
11894;DHT22;6006;49.696;8.662;2023-01-15T12:43:46;5.60;99.90
11894;DHT22;6006;49.696;8.662;2023-01-15T12:46:33;6.00;99.90
11894;DHT22;6006;49.696;8.662;2023-01-15T12:49:08;6.40;99.90
11894;DHT22;6006;49.696;8.662;2023-01-15T12:51:44;6.40;1.00
11894;DHT22;6006;49.696;8.662;2023-01-15T12:54:13;6.50;1.00
11894;DHT22;6006;49.696;8.662;2023-01-15T12:56:48;6.60;38.50
11894;DHT22;6006;49.696;8.662;2023-01-15T12:59:21;6.50;51.60
11894;DHT22;6006;49.696;8.662;2023-01-15T13:01:54;6.70;1.00
11894;DHT22;6006;49.696;8.662;2023-01-15T13:04:27;6.60;1.00
11894;DHT22;6006;49.696;8.662;2023-01-15T13:06:59;6.80;92.60
11894;DHT22;6006;49.696;8.662;2023-01-15T13:09:35;6.80;1.00
11894;DHT22;6006;49.696;8.662;2023-01-15T13:12:10;7.00;15.80
11894;DHT22;6006;49.696;8.662;2023-01-15T13:14:37;7.20;1.00
11894;DHT22;6006;49.696;8.662;2023-01-15T13:17:10;6.80;1.00
11894;DHT22;6006;49.696;8.662;2023-01-15T13:19:50;6.80;55.50
11894;DHT22;6006;49.696;8.662;2023-01-15T13:22:24;6.90;11.90
11894;DHT22;6006;49.696;8.662;2023-01-15T13:27:59;7.00;1.00
11894;DHT22;6006;49.696;8.662;2023-01-15T13:30:39;7.10;1.00
11894;DHT22;6006;49.696;8.662;2023-01-15T13:33:17;7.20;1.00
11894;DHT22;6006;49.696;8.662;2023-01-15T13:35:49;7.40;1.00
11894;DHT22;6006;49.696;8.662;2023-01-15T13:38:20;7.40;1.00
11894;DHT22;6006;49.696;8.662;2023-01-15T13:40:49;7.40;1.00
11894;DHT22;6006;49.696;8.662;2023-01-15T13:43:28;7.50;1.00
11894;DHT22;6006;49.696;8.662;2023-01-15T13:45:57;7.50;1.00
11894;DHT22;6006;49.696;8.662;2023-01-15T13:48:32;7.10;1.00
11894;DHT22;6006;49.696;8.662;2023-01-15T13:51:01;6.70;1.00
11894;DHT22;6006;49.696;8.662;2023-01-15T13:53:31;6.50;1.00
11894;DHT22;6006;49.696;8.662;2023-01-15T13:56:00;6.70;99.90
11894;DHT22;6006;49.696;8.662;2023-01-15T13:58:33;6.60;31.10
11894;DHT22;6006;49.696;8.662;2023-01-15T14:01:05;6.70;1.00
11894;DHT22;6006;49.696;8.662;2023-01-15T14:03:33;6.70;60.20
11894;DHT22;6006;49.696;8.662;2023-01-15T14:06:04;6.50;1.00
11894;DHT22;6006;49.696;8.662;2023-01-15T14:08:39;6.50;1.00
11894;DHT22;6006;49.696;8.662;2023-01-15T14:11:32;6.60;1.00
11894;DHT22;6006;49.696;8.662;2023-01-15T14:14:27;6.80;1.00
11894;DHT22;6006;49.696;8.662;2023-01-15T14:17:07;6.90;1.00
11894;DHT22;6006;49.696;8.662;2023-01-15T14:20:00;6.90;1.00
11894;DHT22;6006;49.696;8.662;2023-01-15T14:22:45;6.90;1.00
11894;DHT22;6006;49.696;8.662;2023-01-15T14:25:25;6.90;1.00
11894;DHT22;6006;49.696;8.662;2023-01-15T14:28:04;6.90;1.00
11894;DHT22;6006;49.696;8.662;2023-01-15T14:33:53;7.10;99.90
11894;DHT22;6006;49.696;8.662;2023-01-15T14:36:26;7.20;99.90
11894;DHT22;6006;49.696;8.662;2023-01-15T14:38:55;7.40;1.00
11894;DHT22;6006;49.696;8.662;2023-01-15T14:41:45;7.40;99.90
11894;DHT22;6006;49.696;8.662;2023-01-15T14:44:31;7.50;1.00
11894;DHT22;6006;49.696;8.662;2023-01-15T14:47:02;7.40;1.00
11894;DHT22;6006;49.696;8.662;2023-01-15T14:49:42;7.40;99.90
11894;DHT22;6006;49.696;8.662;2023-01-15T14:52:14;7.30;1.00
11894;DHT22;6006;49.696;8.662;2023-01-15T14:54:42;7.30;1.00
11894;DHT22;6006;49.696;8.662;2023-01-15T14:57:09;7.30;1.00
11894;DHT22;6006;49.696;8.662;2023-01-15T14:59:43;7.20;1.00
11894;DHT22;6006;49.696;8.662;2023-01-15T15:02:19;7.20;1.00
11894;DHT22;6006;49.696;8.662;2023-01-15T15:04:49;7.10;99.90
11894;DHT22;6006;49.696;8.662;2023-01-15T15:07:19;7.10;99.90
11894;DHT22;6006;49.696;8.662;2023-01-15T15:09:55;7.00;1.00
11894;DHT22;6006;49.696;8.662;2023-01-15T15:12:32;7.00;99.90
11894;DHT22;6006;49.696;8.662;2023-01-15T15:15:05;7.00;99.90
11894;DHT22;6006;49.696;8.662;2023-01-15T15:17:43;7.00;99.90
11894;DHT22;6006;49.696;8.662;2023-01-15T15:20:22;7.00;1.00
11894;DHT22;6006;49.696;8.662;2023-01-15T15:22:55;6.90;99.90
11894;DHT22;6006;49.696;8.662;2023-01-15T15:25:26;6.80;1.00
11894;DHT22;6006;49.696;8.662;2023-01-15T15:28:02;6.80;99.90
11894;DHT22;6006;49.696;8.662;2023-01-15T15:30:32;6.70;1.00
11894;DHT22;6006;49.696;8.662;2023-01-15T15:33:03;6.70;1.00
11894;DHT22;6006;49.696;8.662;2023-01-15T15:35:32;6.70;99.90
11894;DHT22;6006;49.696;8.662;2023-01-15T15:38:03;6.60;1.00
11894;DHT22;6006;49.696;8.662;2023-01-15T15:40:32;6.60;1.00
11894;DHT22;6006;49.696;8.662;2023-01-15T15:43:05;6.60;1.00
11894;DHT22;6006;49.696;8.662;2023-01-15T15:45:53;6.60;99.90
11894;DHT22;6006;49.696;8.662;2023-01-15T15:48:39;6.50;99.90
11894;DHT22;6006;49.696;8.662;2023-01-15T15:51:32;6.50;1.00
11894;DHT22;6006;49.696;8.662;2023-01-15T15:54:18;6.50;1.00
11894;DHT22;6006;49.696;8.662;2023-01-15T15:56:55;6.40;1.00
11894;DHT22;6006;49.696;8.662;2023-01-15T15:59:29;6.40;1.00
11894;DHT22;6006;49.696;8.662;2023-01-15T16:01:58;6.40;99.90
11894;DHT22;6006;49.696;8.662;2023-01-15T16:04:26;6.40;1.00
11894;DHT22;6006;49.696;8.662;2023-01-15T16:06:54;6.30;1.00
11894;DHT22;6006;49.696;8.662;2023-01-15T16:09:23;6.30;1.00
11894;DHT22;6006;49.696;8.662;2023-01-15T16:11:51;6.30;99.90
11894;DHT22;6006;49.696;8.662;2023-01-15T16:14:19;6.30;1.00
11894;DHT22;6006;49.696;8.662;2023-01-15T16:16:50;6.30;1.00
11894;DHT22;6006;49.696;8.662;2023-01-15T16:19:20;6.30;1.00
11894;DHT22;6006;49.696;8.662;2023-01-15T16:21:50;6.20;99.90
11894;DHT22;6006;49.696;8.662;2023-01-15T16:24:25;6.20;1.00
11894;DHT22;6006;49.696;8.662;2023-01-15T16:26:56;6.20;99.90
11894;DHT22;6006;49.696;8.662;2023-01-15T16:29:27;6.20;1.00
11894;DHT22;6006;49.696;8.662;2023-01-15T16:31:54;6.20;1.00
11894;DHT22;6006;49.696;8.662;2023-01-15T16:34:26;6.20;1.00
11894;DHT22;6006;49.696;8.662;2023-01-15T16:36:54;6.10;1.00
11894;DHT22;6006;49.696;8.662;2023-01-15T16:39:25;6.20;99.90
11894;DHT22;6006;49.696;8.662;2023-01-15T16:41:54;6.20;99.90
11894;DHT22;6006;49.696;8.662;2023-01-15T16:44:35;6.20;99.90